Time;durP1;ratioP1;P1;durP2;ratioP2;P2;SDS_P1;SDS_P2;PMS_P1;PMS_P2;Temp;Humidity;BMP_temperature;BMP_pressure;BME280_temperature;BME280_humidity;BME280_pressure;Samples;Min_cycle;Max_cycle;Signal;HPM_P1;HPM_P2
2023/10/04 05:59:47;;;;;;;24.95;5.80;;;22.30;77.10;;;;;;5056534;28;20040;-68
2023/10/04 06:02:14;;;;;;;34.50;5.90;;;22.20;76.10;;;;;;5068070;28;20052;-68
2023/10/04 06:04:42;;;;;;;28.08;5.47;;;22.20;77.80;;;;;;5070682;28;20033;-68
2023/10/04 06:07:09;;;;;;;29.38;5.25;;;22.20;77.70;;;;;;5070823;28;20040;-69
2023/10/04 06:09:42;;;;;;;30.75;5.78;;;22.20;77.00;;;;;;5070386;28;20082;-69
2023/10/04 06:12:12;;;;;;;26.63;6.13;;;22.20;77.30;;;;;;5070972;28;20086;-70
2023/10/04 06:14:40;;;;;;;34.92;6.80;;;22.20;77.20;;;;;;5079442;28;20032;-70
2023/10/04 06:17:07;;;;;;;24.40;5.43;;;22.20;76.90;;;;;;5071332;28;20442;-70
2023/10/04 06:19:34;;;;;;;25.48;5.93;;;22.20;77.00;;;;;;5071088;28;20037;-69
2023/10/04 06:22:04;;;;;;;;;;;22.20;76.90;;;;;;5068397;28;20033;-71
2023/10/04 06:24:32;;;;;;;31.50;5.53;;;22.30;76.80;;;;;;5071160;28;19912;-69
2023/10/04 06:26:59;;;;;;;28.02;5.88;;;22.30;76.20;;;;;;5071243;28;20449;-68
2023/10/04 06:29:26;;;;;;;31.75;5.53;;;22.30;76.00;;;;;;5068820;28;20841;-70
2023/10/04 06:31:54;;;;;;;27.15;6.65;;;22.30;76.30;;;;;;5069495;28;20045;-70
2023/10/04 06:34:22;;;;;;;31.45;6.15;;;22.30;76.20;;;;;;5066713;28;20040;-70
2023/10/04 06:36:49;;;;;;;28.48;6.22;;;22.30;76.20;;;;;;5070173;28;20498;-69
2023/10/04 06:39:17;;;;;;;28.65;6.32;;;22.30;75.60;;;;;;5069031;28;20487;-68
2023/10/04 06:41:44;;;;;;;31.42;7.40;;;22.20;76.00;;;;;;5037282;28;20331;-69
2023/10/04 06:44:11;;;;;;;30.70;6.32;;;22.20;76.20;;;;;;5071173;28;20037;-70
2023/10/04 06:46:39;;;;;;;29.50;6.25;;;22.20;76.10;;;;;;5069355;28;20081;-68
2023/10/04 06:49:06;;;;;;;39.72;7.28;;;22.20;76.10;;;;;;5070359;28;20040;-68
2023/10/04 06:51:33;;;;;;;33.67;6.95;;;22.20;76.40;;;;;;5069703;28;20060;-68
2023/10/04 06:54:05;;;;;;;37.55;6.50;;;22.10;76.40;;;;;;5053255;28;20111;-69
2023/10/04 06:56:32;;;;;;;34.42;6.18;;;22.10;76.50;;;;;;5069882;28;20061;-69
2023/10/04 06:58:59;;;;;;;29.23;6.68;;;22.00;77.00;;;;;;5070755;28;20115;-68
2023/10/04 07:01:26;;;;;;;41.90;8.30;;;22.00;77.30;;;;;;5070283;28;20562;-68
2023/10/04 07:03:54;;;;;;;32.35;6.45;;;22.10;77.20;;;;;;5069156;28;20043;-68
2023/10/04 07:06:21;;;;;;;37.38;7.30;;;22.10;77.40;;;;;;5069804;28;20090;-68
2023/10/04 07:08:48;;;;;;;34.05;6.43;;;22.10;77.20;;;;;;5070593;28;20036;-67
2023/10/04 07:11:15;;;;;;;44.10;6.70;;;22.10;77.00;;;;;;5070459;28;20051;-70
2023/10/04 07:13:43;;;;;;;35.97;7.38;;;22.10;77.00;;;;;;5069512;28;20044;-70
2023/10/04 07:16:11;;;;;;;34.45;6.40;;;22.10;77.20;;;;;;5051489;28;20131;-68
2023/10/04 07:18:39;;;;;;;40.83;7.65;;;22.10;77.10;;;;;;5066494;28;20778;-69
2023/10/04 07:21:07;;;;;;;35.47;6.95;;;22.10;77.00;;;;;;5068244;28;20047;-69
2023/10/04 07:23:34;;;;;;;34.30;7.00;;;22.00;77.00;;;;;;5070368;28;20036;-68
2023/10/04 07:26:03;;;;;;;37.53;7.93;;;22.10;76.80;;;;;;5070110;28;20098;-69
2023/10/04 07:28:30;;;;;;;34.95;6.93;;;22.10;77.10;;;;;;5068721;28;20041;-70
2023/10/04 07:30:57;;;;;;;35.33;6.55;;;22.10;77.20;;;;;;5070404;28;20103;-69
2023/10/04 07:33:25;;;;;;;32.38;7.72;;;22.10;78.60;;;;;;5050382;28;20091;-69
2023/10/04 07:35:53;;;;;;;35.20;7.22;;;21.90;80.70;;;;;;5070150;28;20455;-69
2023/10/04 07:38:21;;;;;;;40.15;6.45;;;21.70;83.30;;;;;;5069040;28;20494;-69
2023/10/04 07:40:49;;;;;;;38.45;7.40;;;21.40;84.80;;;;;;5069011;28;20032;-69
2023/10/04 07:43:16;;;;;;;32.10;5.93;;;21.30;85.90;;;;;;5069528;28;20071;-68
2023/10/04 07:45:45;;;;;;;34.20;6.65;;;21.20;86.60;;;;;;5063325;28;20071;-67
2023/10/04 07:48:15;;;;;;;31.17;6.30;;;21.10;87.40;;;;;;5064489;28;20115;-67
2023/10/04 07:50:42;;;;;;;31.08;5.80;;;21.00;88.00;;;;;;5069630;28;20056;-67
2023/10/04 07:53:09;;;;;;;33.17;6.00;;;21.00;88.20;;;;;;5050898;28;20452;-68
2023/10/04 07:55:36;;;;;;;28.40;6.13;;;21.00;88.20;;;;;;5067418;28;20038;-68
2023/10/04 07:58:04;;;;;;;33.75;7.43;;;20.90;88.00;;;;;;5067855;28;20478;-68
2023/10/04 08:00:35;;;;;;;24.83;5.53;;;20.90;88.10;;;;;;5069860;28;20068;-68
2023/10/04 08:03:03;;;;;;;18.70;4.55;;;20.80;88.10;;;;;;5069139;28;20120;-68
2023/10/04 08:05:33;;;;;;;14.65;3.42;;;20.60;87.80;;;;;;5052141;28;20052;-67
2023/10/04 08:08:04;;;;;;;16.80;3.92;;;20.30;87.00;;;;;;5068703;28;20100;-67
2023/10/04 08:10:35;;;;;;;17.60;4.63;;;20.20;87.80;;;;;;5069459;28;20036;-67
2023/10/04 08:13:03;;;;;;;12.90;3.45;;;20.00;88.90;;;;;;5068412;28;20060;-68
2023/10/04 08:15:31;;;;;;;15.23;3.65;;;19.90;89.10;;;;;;5069014;28;20037;-67
2023/10/04 08:17:59;;;;;;;11.40;3.90;;;19.80;90.20;;;;;;5067346;28;20325;-67
2023/10/04 08:20:32;;;;;;;17.58;3.92;;;19.70;91.50;;;;;;5070200;28;20110;-67
2023/10/04 08:23:02;;;;;;;15.15;4.18;;;19.60;92.00;;;;;;5069170;28;20033;-67
2023/10/04 08:25:29;;;;;;;12.93;3.88;;;19.50;92.00;;;;;;5069304;28;20072;-68
2023/10/04 08:27:57;;;;;;;13.88;3.83;;;19.50;92.50;;;;;;5069032;28;20051;-69
2023/10/04 08:30:25;;;;;;;13.65;3.50;;;19.40;93.00;;;;;;5050356;28;20035;-69
2023/10/04 08:32:53;;;;;;;14.18;3.90;;;19.40;92.50;;;;;;5069495;28;20036;-68
2023/10/04 08:35:29;;;;;;;9.80;2.63;;;19.40;92.80;;;;;;5067172;28;20044;-69
2023/10/04 08:37:58;;;;;;;8.73;2.90;;;19.30;92.00;;;;;;5069146;28;20051;-68
2023/10/04 08:40:27;;;;;;;5.13;2.55;;;19.30;92.20;;;;;;5067752;28;20052;-69
2023/10/04 08:42:55;;;;;;;10.60;3.33;;;19.20;92.40;;;;;;5068556;28;20041;-69
2023/10/04 08:45:24;;;;;;;8.52;2.75;;;19.20;92.60;;;;;;5069617;28;20041;-69
2023/10/04 08:47:57;;;;;;;11.75;3.28;;;19.20;92.70;;;;;;5052065;28;20033;-70
2023/10/04 08:50:27;;;;;;;6.68;2.50;;;19.20;92.50;;;;;;5068114;28;20047;-68
2023/10/04 08:53:17;;;;;;;9.55;2.55;;;19.20;92.40;;;;;;5069023;28;20051;-68
2023/10/04 08:55:48;;;;;;;10.00;2.55;;;19.10;92.20;;;;;;5049401;28;20060;-69
2023/10/04 08:58:15;;;;;;;6.72;2.15;;;19.10;92.40;;;;;;5051255;28;20556;-68
2023/10/04 09:00:43;;;;;;;4.32;1.98;;;19.00;92.00;;;;;;5033737;28;20122;-69
2023/10/04 09:03:10;;;;;;;4.90;1.95;;;19.00;92.20;;;;;;5035049;28;20029;-69
2023/10/04 09:05:38;;;;;;;7.63;2.10;;;18.90;91.60;;;;;;5069178;28;20040;-69
2023/10/04 09:08:05;;;;;;;4.03;1.95;;;18.80;91.60;;;;;;5069449;28;20031;-69
2023/10/04 09:10:33;;;;;;;5.68;1.92;;;18.80;91.70;;;;;;5068089;28;20072;-68
2023/10/04 09:13:04;;;;;;;4.82;1.27;;;18.70;90.80;;;;;;5049843;28;20490;-69
2023/10/04 09:15:31;;;;;;;5.32;1.20;;;18.60;90.50;;;;;;5072803;28;20083;-68
2023/10/04 09:18:03;;;;;;;1.27;0.75;;;18.30;88.00;;;;;;5072437;28;20055;-68
2023/10/04 09:20:31;;;;;;;2.47;0.90;;;18.20;86.90;;;;;;5053627;28;20514;-69
2023/10/04 09:22:59;;;;;;;2.65;0.85;;;18.10;87.00;;;;;;5049722;28;20406;-67
2023/10/04 09:25:39;;;;;;;0.93;0.50;;;18.10;86.70;;;;;;5072625;28;20502;-66
2023/10/04 09:28:11;;;;;;;1.08;0.70;;;18.00;86.10;;;;;;5054502;28;20040;-67
2023/10/04 09:30:38;;;;;;;1.38;0.50;;;17.90;84.50;;;;;;5072367;28;20031;-67
2023/10/04 09:33:07;;;;;;;2.00;0.40;;;17.90;84.70;;;;;;5070937;28;20174;-67
2023/10/04 09:35:44;;;;;;;0.68;0.38;;;17.80;84.90;;;;;;5070363;28;20028;-66
2023/10/04 09:38:21;;;;;;;2.35;0.38;;;17.80;85.70;;;;;;5054148;28;20476;-66
2023/10/04 09:40:52;;;;;;;0.70;0.38;;;17.70;85.70;;;;;;5053908;28;20040;-65
2023/10/04 09:43:39;;;;;;;0.68;0.40;;;17.70;84.50;;;;;;5067520;28;20052;-66
2023/10/04 09:46:09;;;;;;;2.20;0.40;;;17.70;85.40;;;;;;5069828;28;20407;-66
2023/10/04 09:48:37;;;;;;;0.38;0.38;;;17.70;85.80;;;;;;5072177;28;20475;-67
2023/10/04 09:51:06;;;;;;;2.60;0.90;;;17.60;87.00;;;;;;5038941;28;20047;-67
2023/10/04 09:53:38;;;;;;;2.10;0.80;;;17.50;87.70;;;;;;5064315;28;20037;-67
2023/10/04 09:56:06;;;;;;;3.50;1.10;;;17.50;88.40;;;;;;5070577;28;20036;-66
2023/10/04 09:58:33;;;;;;;2.55;1.08;;;17.40;88.30;;;;;;5071392;28;20044;-67
2023/10/04 10:01:11;;;;;;;3.00;1.00;;;17.40;89.10;;;;;;5055114;28;20052;-68
2023/10/04 10:03:50;;;;;;;1.35;0.75;;;17.30;89.50;;;;;;5050863;28;20037;-67
2023/10/04 10:06:22;;;;;;;2.03;0.93;;;17.20;89.80;;;;;;5033885;28;20048;-67
2023/10/04 10:08:51;;;;;;;1.98;0.93;;;17.10;89.50;;;;;;5051282;28;20041;-67
2023/10/04 10:11:19;;;;;;;1.67;0.90;;;17.00;89.40;;;;;;5017697;28;20036;-68
2023/10/04 10:13:46;;;;;;;1.52;0.95;;;17.00;89.50;;;;;;5034614;28;20258;-67
2023/10/04 10:16:14;;;;;;;1.45;0.70;;;16.90;89.80;;;;;;5032790;28;20526;-67
2023/10/04 10:18:41;;;;;;;3.05;0.82;;;16.80;89.70;;;;;;5033758;28;20531;-66
2023/10/04 10:21:08;;;;;;;1.15;0.60;;;16.80;89.70;;;;;;5044750;28;20043;-67
2023/10/04 10:23:57;;;;;;;1.40;0.60;;;16.70;89.50;;;;;;5051006;28;20044;-67
2023/10/04 10:26:26;;;;;;;5.57;0.50;;;16.60;88.80;;;;;;5050200;28;20123;-67
2023/10/04 10:29:04;;;;;;;1.35;0.50;;;16.40;88.50;;;;;;5051088;28;20055;-66
2023/10/04 10:31:31;;;;;;;1.85;0.70;;;16.30;88.10;;;;;;5051155;28;20526;-66
2023/10/04 10:34:00;;;;;;;1.98;0.50;;;16.20;89.00;;;;;;5049267;28;20043;-66
2023/10/04 10:36:33;;;;;;;0.93;0.63;;;16.20;88.70;;;;;;5033968;28;20033;-66
2023/10/04 10:47:23;;;;;;;2.33;0.70;;;16.00;88.40;;;;;;5066864;28;20058;-67
2023/10/04 10:50:01;;;;;;;2.55;0.80;;;15.90;89.00;;;;;;5070956;28;20085;-67
2023/10/04 10:52:39;;;;;;;1.63;0.60;;;15.80;89.40;;;;;;5070921;28;20203;-68
2023/10/04 10:55:07;;;;;;;1.60;0.60;;;15.80;89.70;;;;;;5070313;28;20051;-66
2023/10/04 10:57:38;;;;;;;3.13;0.60;;;15.70;89.90;;;;;;5070969;28;20028;-69
2023/10/04 11:02:41;;;;;;;1.83;0.50;;;15.70;89.70;;;;;;5063957;28;20091;-66
2023/10/04 11:05:12;;;;;;;3.33;0.55;;;15.60;89.20;;;;;;5050636;28;20452;-66
2023/10/04 11:07:40;;;;;;;1.27;0.68;;;15.60;89.60;;;;;;5064461;28;20063;-67
2023/10/04 11:10:08;;;;;;;2.47;0.60;;;15.50;89.30;;;;;;5070170;28;20036;-67
2023/10/04 11:12:38;;;;;;;1.55;0.65;;;15.40;89.20;;;;;;5070205;28;20040;-67
2023/10/04 11:15:09;;;;;;;1.30;0.73;;;15.30;90.00;;;;;;5050526;28;20040;-67
2023/10/04 11:17:37;;;;;;;2.20;0.88;;;15.40;90.60;;;;;;5069561;28;20037;-69
2023/10/04 11:20:12;;;;;;;2.42;1.08;;;15.30;90.20;;;;;;5052251;28;20060;-69
2023/10/04 11:22:40;;;;;;;2.85;0.90;;;15.30;90.10;;;;;;5070439;28;20029;-69
2023/10/04 11:25:08;;;;;;;3.45;0.80;;;15.20;89.60;;;;;;5050416;28;20047;-71
2023/10/04 11:27:40;;;;;;;3.22;1.00;;;15.20;91.00;;;;;;5069930;28;20040;-68
2023/10/04 11:30:10;;;;;;;2.00;1.00;;;15.20;90.90;;;;;;5053354;28;20410;-69
2023/10/04 11:32:41;;;;;;;3.10;0.70;;;15.20;90.70;;;;;;5053031;28;20040;-70
2023/10/04 11:35:09;;;;;;;1.38;1.08;;;15.30;91.10;;;;;;5033892;28;20415;-70
2023/10/04 11:37:54;;;;;;;1.70;0.70;;;15.20;91.30;;;;;;5052196;28;20055;-70
2023/10/04 11:40:29;;;;;;;1.85;0.50;;;15.20;90.70;;;;;;5052986;28;20383;-68
2023/10/04 11:43:00;;;;;;;3.53;1.20;;;15.20;91.30;;;;;;5076649;28;20023;-67
2023/10/04 11:45:28;;;;;;;1.70;0.80;;;15.30;91.70;;;;;;5065743;28;20048;-68
2023/10/04 11:48:08;;;;;;;1.27;0.60;;;15.20;91.10;;;;;;5072525;28;20410;-67
2023/10/04 11:50:45;;;;;;;0.90;0.30;;;15.20;90.90;;;;;;5072469;28;20040;-67
2023/10/04 11:53:13;;;;;;;1.35;0.50;;;15.10;90.50;;;;;;5071988;28;20331;-67
2023/10/04 11:55:40;;;;;;;1.27;0.60;;;15.00;90.60;;;;;;5072213;28;20082;-67
2023/10/04 11:58:10;;;;;;;0.52;0.47;;;14.90;89.90;;;;;;5054791;28;20036;-67
2023/10/04 12:00:37;;;;;;;0.88;0.40;;;14.90;90.60;;;;;;5072215;28;20115;-67
2023/10/04 12:03:06;;;;;;;0.80;0.40;;;14.80;90.00;;;;;;5072561;28;20071;-67
2023/10/04 12:05:33;;;;;;;0.30;0.30;;;14.80;90.40;;;;;;5071895;28;20131;-67
2023/10/04 12:08:01;;;;;;;0.85;0.55;;;14.80;89.20;;;;;;5072279;28;20032;-67
2023/10/04 12:10:28;;;;;;;0.43;0.43;;;14.70;89.10;;;;;;5072372;28;20500;-66
2023/10/04 12:12:57;;;;;;;0.75;0.38;;;14.80;89.20;;;;;;5072057;28;20064;-67
2023/10/04 12:15:25;;;;;;;0.30;0.30;;;14.80;89.30;;;;;;5071637;28;20044;-67
2023/10/04 12:17:52;;;;;;;0.68;0.40;;;14.80;88.60;;;;;;5071990;28;20039;-67
2023/10/04 12:20:24;;;;;;;0.40;0.40;;;14.80;88.90;;;;;;5071942;28;20029;-66
2023/10/04 12:22:51;;;;;;;0.40;0.35;;;14.80;88.40;;;;;;5071984;28;20106;-66
2023/10/04 12:25:21;;;;;;;0.25;0.20;;;14.80;88.40;;;;;;5071712;28;20051;-66
2023/10/04 12:27:50;;;;;;;1.05;0.38;;;14.80;88.50;;;;;;5051915;28;20041;-66
2023/10/04 12:30:19;;;;;;;1.33;0.35;;;14.80;88.50;;;;;;5051862;28;20031;-66
2023/10/04 12:32:46;;;;;;;1.10;0.50;;;14.80;87.80;;;;;;5053441;28;20079;-66
2023/10/04 12:35:14;;;;;;;0.52;0.50;;;14.70;88.20;;;;;;5071575;28;20028;-66
2023/10/04 12:37:42;;;;;;;1.67;0.60;;;14.80;87.70;;;;;;5071892;28;20032;-66
2023/10/04 12:40:23;;;;;;;0.80;0.45;;;14.70;87.70;;;;;;5071829;28;20041;-66
2023/10/04 12:42:54;;;;;;;0.43;0.43;;;14.80;87.50;;;;;;5071617;28;20045;-66
2023/10/04 12:45:21;;;;;;;0.65;0.60;;;14.70;86.50;;;;;;5071500;28;20044;-66
2023/10/04 12:47:48;;;;;;;0.63;0.50;;;14.70;87.30;;;;;;5073228;28;20068;-65
2023/10/04 12:50:16;;;;;;;1.33;0.60;;;14.70;86.80;;;;;;5075869;28;20406;-66
2023/10/04 12:52:44;;;;;;;1.00;0.60;;;14.70;86.30;;;;;;5075988;28;20044;-65
2023/10/04 12:55:11;;;;;;;1.92;0.22;;;14.70;85.80;;;;;;5075746;28;20043;-66
2023/10/04 12:57:43;;;;;;;2.95;0.65;;;14.70;86.20;;;;;;5058394;28;20040;-66
2023/10/04 13:00:15;;;;;;;2.60;0.60;;;14.60;85.00;;;;;;5075215;28;20037;-66
2023/10/04 13:02:45;;;;;;;0.60;0.47;;;14.70;86.00;;;;;;5075702;28;20025;-66
2023/10/04 13:05:14;;;;;;;1.67;0.45;;;14.70;85.90;;;;;;5075736;28;20032;-66
2023/10/04 13:07:44;;;;;;;1.65;0.70;;;14.70;85.60;;;;;;5057975;28;20075;-66
2023/10/04 13:10:15;;;;;;;2.08;0.60;;;14.70;85.30;;;;;;5057680;28;20500;-66
2023/10/04 13:12:47;;;;;;;0.60;0.50;;;14.70;85.60;;;;;;5057292;28;20059;-66
2023/10/04 13:15:19;;;;;;;0.38;0.38;;;14.70;85.50;;;;;;5075472;28;20055;-66
2023/10/04 13:17:47;;;;;;;1.45;0.75;;;14.50;84.90;;;;;;5075330;28;20398;-66
2023/10/04 13:20:17;;;;;;;0.82;0.60;;;14.60;85.50;;;;;;5075557;28;20044;-66
2023/10/04 13:22:45;;;;;;;0.88;0.52;;;14.60;85.20;;;;;;5074902;28;20039;-66
2023/10/04 13:25:13;;;;;;;0.60;0.38;;;14.60;85.80;;;;;;5073932;28;20037;-66
2023/10/04 13:27:41;;;;;;;2.15;0.85;;;14.50;85.30;;;;;;5074981;28;20037;-66
2023/10/04 13:30:09;;;;;;;0.60;0.50;;;14.50;84.90;;;;;;5074850;28;20025;-66
2023/10/04 13:32:38;;;;;;;1.08;0.50;;;14.50;84.40;;;;;;5074843;28;20198;-66
2023/10/04 13:35:14;;;;;;;0.98;0.60;;;14.50;85.80;;;;;;5073599;28;20536;-66
2023/10/04 13:37:52;;;;;;;1.10;0.57;;;14.50;84.80;;;;;;5074750;28;20106;-66
2023/10/04 13:40:25;;;;;;;1.60;0.70;;;14.50;85.90;;;;;;5058768;28;20068;-66
2023/10/04 13:42:53;;;;;;;1.58;0.88;;;14.50;85.00;;;;;;5074912;28;20097;-66
2023/10/04 13:45:20;;;;;;;1.38;0.60;;;14.50;85.20;;;;;;5074916;28;20048;-66
2023/10/04 13:47:47;;;;;;;1.77;0.73;;;14.50;84.60;;;;;;5074711;28;20123;-66
2023/10/04 13:50:19;;;;;;;1.20;0.70;;;14.50;83.20;;;;;;5057068;28;20029;-66
2023/10/04 13:52:47;;;;;;;1.73;0.68;;;14.60;84.50;;;;;;5075166;28;20025;-66
2023/10/04 13:55:14;;;;;;;2.47;0.60;;;14.50;83.80;;;;;;5074936;28;20064;-66
2023/10/04 13:57:41;;;;;;;2.80;0.90;;;14.60;84.50;;;;;;5074674;28;20568;-66
2023/10/04 14:00:24;;;;;;;2.58;0.68;;;14.60;84.80;;;;;;5073858;28;20454;-66
2023/10/04 15:42:04;;;;;;;0.80;0.60;;;14.90;73.10;;;;;;5068089;28;20103;-66
2023/10/04 15:44:31;;;;;;;0.50;0.30;;;14.90;71.80;;;;;;5071601;28;20121;-66
2023/10/04 15:46:58;;;;;;;2.22;0.50;;;15.00;72.30;;;;;;5072478;28;20123;-66
2023/10/04 15:49:26;;;;;;;1.60;0.47;;;14.90;71.60;;;;;;5072650;28;20033;-66
2023/10/04 15:51:53;;;;;;;0.77;0.55;;;15.00;71.40;;;;;;5072386;28;20115;-66
2023/10/04 15:54:20;;;;;;;0.32;0.32;;;15.00;72.30;;;;;;5072460;28;20108;-67
2023/10/04 15:56:48;;;;;;;0.40;0.40;;;15.00;71.40;;;;;;5072576;28;20531;-66
2023/10/04 15:59:15;;;;;;;0.40;0.30;;;15.00;71.70;;;;;;5072141;28;20045;-67
2023/10/04 16:01:42;;;;;;;0.63;0.28;;;15.00;71.80;;;;;;5072110;28;20110;-66
2023/10/04 16:04:11;;;;;;;0.20;0.20;;;15.00;71.60;;;;;;5072629;28;20493;-67
2023/10/04 16:06:38;;;;;;;0.20;0.20;;;15.00;70.40;;;;;;5072215;28;20048;-67
2023/10/04 16:09:06;;;;;;;0.82;0.25;;;15.00;70.00;;;;;;5072024;28;20032;-67
2023/10/04 16:11:34;;;;;;;0.20;0.20;;;15.10;69.40;;;;;;5071550;28;20398;-66
2023/10/04 16:14:01;;;;;;;0.80;0.38;;;15.00;70.00;;;;;;5072245;28;20388;-66
2023/10/04 16:16:28;;;;;;;0.30;0.30;;;15.00;69.70;;;;;;5071975;28;20437;-67
2023/10/04 16:18:56;;;;;;;0.65;0.40;;;15.10;69.60;;;;;;5071904;28;20059;-68
2023/10/04 16:21:24;;;;;;;0.90;0.40;;;15.00;69.00;;;;;;5071994;28;20539;-66
2023/10/04 16:23:51;;;;;;;0.63;0.30;;;15.00;68.70;;;;;;5070067;28;20033;-66
2023/10/04 16:26:19;;;;;;;1.40;0.25;;;15.00;69.80;;;;;;5072024;28;20055;-66
2023/10/04 16:28:46;;;;;;;0.30;0.30;;;15.00;68.70;;;;;;5072387;28;20028;-66
2023/10/04 16:31:13;;;;;;;0.32;0.22;;;15.00;69.10;;;;;;5071559;28;20479;-66
2023/10/04 16:33:40;;;;;;;0.20;0.20;;;15.00;68.90;;;;;;5072187;28;20040;-66
2023/10/04 16:36:08;;;;;;;0.40;0.30;;;15.00;67.90;;;;;;5072095;28;20114;-66
2023/10/04 16:38:35;;;;;;;0.20;0.20;;;15.10;69.50;;;;;;5072117;28;20055;-67
2023/10/04 16:41:03;;;;;;;0.47;0.20;;;15.00;68.40;;;;;;5071448;28;20041;-66
2023/10/04 16:43:30;;;;;;;0.70;0.40;;;15.00;69.20;;;;;;5058753;28;20076;-67
2023/10/04 16:45:57;;;;;;;0.10;0.10;;;15.00;69.20;;;;;;5051133;28;20079;-66
2023/10/04 16:48:25;;;;;;;0.22;0.22;;;15.00;70.30;;;;;;5051233;28;20057;-66
2023/10/04 16:50:53;;;;;;;0.20;0.10;;;15.00;69.20;;;;;;5050451;28;20090;-66
2023/10/04 16:53:20;;;;;;;0.08;0.08;;;15.00;68.40;;;;;;5050778;28;20052;-66
2023/10/04 16:55:48;;;;;;;1.83;0.20;;;15.00;67.90;;;;;;5051165;28;20036;-66
2023/10/04 16:58:15;;;;;;;0.13;0.13;;;15.00;67.80;;;;;;5051124;28;20060;-66
2023/10/04 17:00:43;;;;;;;0.30;0.20;;;15.10;68.30;;;;;;5050554;28;20033;-66
2023/10/04 17:03:10;;;;;;;0.70;0.20;;;15.10;68.50;;;;;;5050547;28;20053;-66
2023/10/04 17:05:37;;;;;;;0.30;0.25;;;15.10;67.40;;;;;;5050773;28;20064;-66
2023/10/04 17:08:05;;;;;;;0.00;0.00;;;15.20;68.20;;;;;;5050689;28;20459;-66
2023/10/04 17:10:33;;;;;;;0.52;0.20;;;15.20;67.20;;;;;;5050607;28;20037;-66
2023/10/04 17:13:01;;;;;;;0.47;0.30;;;15.20;67.30;;;;;;5050407;28;20040;-66
2023/10/04 17:15:28;;;;;;;0.20;0.20;;;15.20;67.10;;;;;;5050597;28;20065;-66
2023/10/04 17:17:55;;;;;;;0.20;0.20;;;15.20;65.90;;;;;;5033141;28;20037;-67
2023/10/04 17:20:23;;;;;;;0.20;0.20;;;15.20;66.70;;;;;;5050174;28;20039;-66
2023/10/04 17:22:50;;;;;;;0.20;0.20;;;15.20;66.10;;;;;;5050733;28;20102;-66
2023/10/04 17:25:17;;;;;;;0.17;0.17;;;15.20;65.50;;;;;;5050388;28;20438;-66
2023/10/04 17:27:44;;;;;;;0.20;0.20;;;15.30;65.50;;;;;;5050985;28;20049;-68
2023/10/04 17:30:20;;;;;;;0.25;0.20;;;15.30;65.90;;;;;;5049615;28;20037;-66
2023/10/04 17:32:47;;;;;;;0.15;0.15;;;15.30;65.20;;;;;;5049996;28;20037;-66
2023/10/04 17:35:17;;;;;;;0.35;0.20;;;15.30;64.60;;;;;;5052176;28;20059;-66
2023/10/04 17:37:45;;;;;;;;;;;15.30;63.40;;;;;;5054169;28;20041;-66
2023/10/04 17:40:15;;;;;;;0.20;0.20;;;15.30;64.70;;;;;;5053854;28;20019;-66
2023/10/04 17:42:41;;;;;;;;;;;15.40;64.10;;;;;;4968214;28;2472852;-66
2023/10/04 17:45:10;;;;;;;0.73;0.40;;;15.40;63.90;;;;;;5054659;28;19909;-66
2023/10/04 17:47:38;;;;;;;4.03;0.40;;;15.50;63.30;;;;;;5054334;28;20311;-66
2023/10/04 17:50:06;;;;;;;0.40;0.40;;;15.50;62.50;;;;;;5042293;28;20083;-66
2023/10/04 17:52:33;;;;;;;0.40;0.40;;;15.50;61.90;;;;;;5050058;28;20159;-66
2023/10/04 17:55:01;;;;;;;4.47;0.50;;;15.50;61.40;;;;;;5051911;28;20617;-66
2023/10/04 17:57:28;;;;;;;0.52;0.52;;;15.50;60.90;;;;;;5047232;28;20420;-66
2023/10/04 17:59:56;;;;;;;1.05;0.57;;;15.50;61.00;;;;;;5054569;28;20033;-66
2023/10/04 18:02:23;;;;;;;0.70;0.70;;;15.50;60.90;;;;;;5037059;28;20125;-66
2023/10/04 18:04:51;;;;;;;0.43;0.43;;;15.60;61.30;;;;;;5054372;28;20502;-66
2023/10/04 18:07:18;;;;;;;0.40;0.40;;;15.50;61.50;;;;;;5053919;28;20041;-67
2023/10/04 18:09:46;;;;;;;0.88;0.40;;;15.60;61.10;;;;;;5054141;28;20025;-68
2023/10/04 18:12:13;;;;;;;0.43;0.43;;;15.50;60.00;;;;;;5054426;28;20065;-67
2023/10/04 18:14:43;;;;;;;0.55;0.52;;;15.60;60.70;;;;;;5054847;28;20103;-66
2023/10/04 18:17:10;;;;;;;;;;;15.60;59.20;;;;;;5054801;28;20037;-67
2023/10/04 18:19:37;;;;;;;0.60;0.60;;;15.60;59.30;;;;;;5054445;28;20346;-67
2023/10/04 18:22:04;;;;;;;0.45;0.38;;;15.60;59.80;;;;;;5054620;28;20029;-68
2023/10/04 18:24:32;;;;;;;0.82;0.70;;;15.60;59.10;;;;;;5054043;28;20083;-68
2023/10/04 18:26:59;;;;;;;1.25;0.70;;;15.60;59.10;;;;;;5054063;28;20037;-67
2023/10/04 18:29:26;;;;;;;0.50;0.50;;;15.60;59.50;;;;;;5035611;28;20391;-67
2023/10/04 18:31:53;;;;;;;0.70;0.60;;;15.60;58.70;;;;;;5054242;28;20037;-67
2023/10/04 18:34:21;;;;;;;0.50;0.50;;;15.60;59.20;;;;;;5053982;28;20376;-67
2023/10/04 18:36:48;;;;;;;1.45;0.60;;;15.60;58.70;;;;;;5053666;28;20120;-67
2023/10/04 18:39:18;;;;;;;0.80;0.60;;;15.60;59.70;;;;;;5054159;28;20101;-67
2023/10/04 18:41:46;;;;;;;5.10;0.68;;;15.60;59.50;;;;;;5053631;28;20479;-67
2023/10/04 18:44:14;;;;;;;0.50;0.50;;;15.60;59.00;;;;;;5054642;28;20044;-67
2023/10/04 18:46:42;;;;;;;0.68;0.57;;;15.50;59.10;;;;;;5073659;28;20520;-67
2023/10/04 18:49:09;;;;;;;1.00;0.50;;;15.50;58.00;;;;;;5073736;28;20029;-67
2023/10/04 18:51:37;;;;;;;1.60;0.90;;;15.50;58.50;;;;;;5073577;28;20119;-67
2023/10/04 18:54:05;;;;;;;1.65;0.60;;;15.50;58.10;;;;;;5073719;28;20028;-68
2023/10/04 18:56:32;;;;;;;0.80;0.68;;;15.50;57.70;;;;;;5073347;28;20033;-67
2023/10/04 18:58:59;;;;;;;0.93;0.60;;;15.50;58.60;;;;;;5073742;28;20094;-67
2023/10/04 19:01:27;;;;;;;2.03;0.63;;;15.50;57.80;;;;;;5073696;28;20032;-67
2023/10/04 19:03:57;;;;;;;2.38;0.60;;;15.50;58.40;;;;;;5073717;28;20063;-67
2023/10/04 19:06:25;;;;;;;2.28;0.65;;;15.50;58.00;;;;;;5073259;28;20166;-67
2023/10/04 19:08:52;;;;;;;0.50;0.50;;;15.50;57.40;;;;;;5073353;28;20108;-67
2023/10/04 19:11:25;;;;;;;0.30;0.30;;;15.50;56.90;;;;;;5073161;28;20028;-66
2023/10/04 19:13:52;;;;;;;0.47;0.40;;;15.50;56.50;;;;;;5073357;28;20468;-67
2023/10/04 19:16:20;;;;;;;1.38;0.57;;;15.40;56.30;;;;;;5073247;28;20107;-66
2023/10/04 19:18:49;;;;;;;1.60;0.47;;;15.40;56.00;;;;;;5073184;28;20036;-67
2023/10/04 19:21:17;;;;;;;0.75;0.57;;;15.40;57.00;;;;;;5073603;28;20046;-67
2023/10/04 19:23:44;;;;;;;1.88;0.65;;;15.50;57.60;;;;;;5073208;28;20457;-67
2023/10/04 19:26:11;;;;;;;1.13;0.57;;;15.40;56.40;;;;;;5073652;28;20098;-67
2023/10/04 19:28:39;;;;;;;0.50;0.40;;;15.30;56.30;;;;;;5073022;28;20033;-67
2023/10/04 19:31:06;;;;;;;0.35;0.20;;;15.30;57.10;;;;;;5072964;28;20037;-67
2023/10/04 19:33:34;;;;;;;3.42;0.60;;;15.40;56.30;;;;;;5072885;28;20052;-67
2023/10/04 19:36:03;;;;;;;0.90;0.60;;;15.40;55.60;;;;;;5072427;28;20029;-67
2023/10/04 19:38:30;;;;;;;0.30;0.30;;;15.40;55.50;;;;;;5072437;28;20028;-67
2023/10/04 19:41:03;;;;;;;2.15;0.45;;;15.40;56.00;;;;;;5072036;28;20111;-66
2023/10/04 19:43:30;;;;;;;2.03;0.47;;;15.40;56.60;;;;;;5075326;28;20054;-67
2023/10/04 19:45:57;;;;;;;1.25;0.45;;;15.30;56.20;;;;;;5092864;28;20071;-67
2023/10/04 19:48:25;;;;;;;0.75;0.45;;;15.30;55.70;;;;;;5083319;28;20033;-67
2023/10/04 19:50:52;;;;;;;2.40;0.52;;;15.30;56.80;;;;;;5072491;28;20035;-66
2023/10/04 19:53:19;;;;;;;0.95;0.40;;;15.30;55.70;;;;;;5072256;28;20028;-66
2023/10/04 19:55:46;;;;;;;0.80;0.50;;;15.30;55.70;;;;;;5072535;28;20028;-67
2023/10/04 19:58:13;;;;;;;1.02;0.50;;;15.30;55.30;;;;;;5054244;28;20493;-67
2023/10/04 20:00:44;;;;;;;0.50;0.47;;;15.40;55.60;;;;;;5071994;28;20037;-66
2023/10/04 20:03:14;;;;;;;;;;;15.40;56.20;;;;;;5055328;28;20065;-67
2023/10/04 20:05:41;;;;;;;0.70;0.43;;;15.40;55.20;;;;;;5072156;28;20381;-67
2023/10/04 20:08:09;;;;;;;1.17;0.45;;;15.40;55.60;;;;;;5071838;28;20506;-67
2023/10/04 20:10:37;;;;;;;0.80;0.70;;;15.40;53.40;;;;;;5072110;28;20033;-66
2023/10/04 20:13:05;;;;;;;0.70;0.55;;;15.40;54.80;;;;;;5072041;28;20072;-66
2023/10/04 20:15:37;;;;;;;2.63;0.77;;;15.40;55.40;;;;;;5054386;28;20122;-66
2023/10/04 20:18:08;;;;;;;0.40;0.40;;;15.40;54.10;;;;;;5071932;28;20024;-68
2023/10/04 20:20:38;;;;;;;0.68;0.52;;;15.50;53.60;;;;;;5071922;28;20471;-66
2023/10/04 20:23:05;;;;;;;;;;;15.50;54.10;;;;;;5054348;28;20479;-67
2023/10/04 20:25:35;;;;;;;0.93;0.47;;;15.50;54.70;;;;;;5071857;28;20286;-68
2023/10/04 20:28:04;;;;;;;0.52;0.50;;;15.50;54.50;;;;;;5072053;28;20036;-68
2023/10/04 20:30:31;;;;;;;2.45;0.43;;;15.50;54.00;;;;;;5071889;28;20024;-66
2023/10/04 20:32:58;;;;;;;1.13;0.47;;;15.50;53.40;;;;;;5072273;28;20087;-68
2023/10/04 20:35:26;;;;;;;2.33;0.63;;;15.50;53.20;;;;;;5037498;28;20494;-68
2023/10/04 20:37:53;;;;;;;0.90;0.47;;;15.50;52.20;;;;;;5090454;28;20036;-68
2023/10/04 20:40:21;;;;;;;3.00;0.90;;;15.50;53.70;;;;;;5074711;28;20044;-68
2023/10/04 20:42:48;;;;;;;1.77;0.60;;;15.60;53.40;;;;;;5070913;28;20513;-68